Overbrook, Oklahoma
Current Conditions -  °F | °C
As of 10:55 AM on Thursday 30 Oct 2014 (Local Time) from KADM Reporting Station
Clear Clear  
Wind Chill: 64°   Ceiling: Unl
Heat Index: 64°   Visibility: 10mi
Dew Point: 50°   Wind: 7mph
Humidity: 59%   Direction: 170°S
Pressure: 30.16"   Gusts: NA
Location:  34.07°N, 97.14°W
Report Text: KADM 301555Z 17006KT 10SM SCT 090 18/10 A3016
Loading
Personal Weather Stations






























Interactive Weather Map
Tropical Storm Tracking
New forecast layout! Learn more

10-Day Weather Forecast

Advertisements
Track Severe Weather on mobile